createdAt,value
2019-04-22T00:00:17.900Z,12.42
2019-04-22T00:01:20.556Z,12.49
2019-04-22T00:02:17.112Z,12.46
2019-04-22T00:03:19.954Z,12.57
2019-04-22T00:04:22.596Z,12.49
2019-04-22T00:05:36.497Z,12.54
2019-04-22T00:06:39.033Z,12.59
2019-04-22T00:08:47.546Z,12.38
2019-04-22T00:09:45.730Z,12.44
2019-04-22T00:10:48.679Z,12.39
2019-04-22T00:11:48.527Z,12.26
2019-04-22T00:12:42.400Z,12.24
2019-04-22T00:13:48.832Z,12.38
2019-04-22T00:14:36.834Z,12.26
2019-04-22T00:15:39.237Z,12.27
2019-04-22T00:16:47.015Z,12.30
2019-04-22T00:17:46.545Z,12.29
2019-04-22T00:18:54.898Z,12.27
2019-04-22T00:19:43.873Z,12.29
2019-04-22T00:20:44.071Z,12.16
2019-04-22T00:21:47.622Z,12.26
2019-04-22T00:22:42.704Z,12.33
2019-04-22T00:23:39.215Z,12.27
2019-04-22T00:24:44.539Z,12.27
2019-04-22T00:25:49.406Z,12.41
2019-04-22T00:26:43.959Z,12.42
2019-04-22T00:28:48.318Z,12.39
2019-04-22T00:30:41.906Z,12.45
2019-04-22T00:31:40.374Z,12.44
2019-04-22T00:32:39.627Z,12.52
2019-04-22T00:33:38.893Z,12.45
2019-04-22T00:34:42.613Z,12.51
2019-04-22T00:35:41.985Z,12.51
2019-04-22T00:36:44.898Z,12.52
2019-04-22T00:37:46.241Z,12.66
2019-04-22T00:38:44.412Z,12.49
2019-04-22T00:39:41.952Z,12.59
2019-04-22T00:40:47.679Z,12.70
2019-04-22T00:41:44.062Z,12.78
2019-04-22T00:42:42.738Z,12.79
2019-04-22T00:43:48.147Z,12.81
2019-04-22T00:44:47.687Z,12.81
2019-04-22T00:45:43.166Z,12.75
2019-04-22T00:46:46.244Z,12.75
2019-04-22T00:47:37.708Z,12.79
2019-04-22T00:48:42.059Z,12.93
2019-04-22T00:50:51.887Z,13.02
2019-04-22T00:51:52.603Z,13.06
2019-04-22T00:52:43.137Z,13.03
2019-04-22T00:53:39.212Z,13.02
2019-04-22T00:54:45.607Z,12.84
2019-04-22T00:55:46.346Z,12.82
2019-04-22T00:56:42.242Z,12.82
2019-04-22T00:57:41.551Z,12.79
2019-04-22T00:58:47.047Z,12.82
2019-04-22T00:59:50.296Z,12.78
2019-04-22T01:00:48.086Z,12.75
2019-04-22T01:01:44.022Z,12.82
2019-04-22T01:02:49.771Z,12.84
2019-04-22T01:04:49.033Z,12.93
2019-04-22T01:05:50.491Z,12.97
2019-04-22T01:06:38.849Z,12.95
2019-04-22T01:07:43.444Z,12.99
2019-04-22T01:09:46.368Z,13.06
2019-04-22T01:10:49.389Z,13.00
2019-04-22T01:12:04.081Z,13.04
2019-04-22T01:12:44.296Z,13.12
2019-04-22T01:13:44.266Z,13.14
2019-04-22T01:14:46.017Z,13.02
2019-04-22T01:15:47.582Z,12.99
2019-04-22T01:16:44.246Z,12.95
2019-04-22T01:17:45.024Z,13.02
2019-04-22T01:18:44.069Z,13.07
2019-04-22T01:19:52.898Z,13.09
2019-04-22T01:22:38.370Z,12.95
2019-04-22T01:23:40.805Z,12.84
2019-04-22T01:24:38.734Z,12.84
2019-04-22T01:25:41.070Z,12.81
2019-04-22T01:26:34.609Z,12.84
2019-04-22T01:27:34.968Z,12.93
2019-04-22T01:28:34.265Z,12.99
2019-04-22T01:29:37.991Z,13.09
2019-04-22T01:30:30.344Z,13.00
2019-04-22T01:31:25.322Z,12.99
2019-04-22T01:32:27.290Z,12.88
2019-04-22T01:33:30.637Z,12.88
2019-04-22T01:34:36.370Z,12.95
2019-04-22T01:35:35.199Z,12.87
2019-04-22T01:36:45.698Z,12.79
2019-04-22T01:37:41.653Z,12.75
2019-04-22T01:38:45.492Z,12.84
2019-04-22T01:39:44.385Z,12.96
2019-04-22T01:40:45.531Z,12.99
2019-04-22T01:41:55.134Z,13.00
2019-04-22T01:42:53.658Z,12.96
2019-04-22T01:43:53.095Z,12.92
2019-04-22T01:44:45.425Z,12.78
2019-04-22T01:45:49.668Z,12.71
2019-04-22T01:47:45.217Z,12.75
2019-04-22T01:48:48.665Z,12.67
2019-04-22T01:49:45.889Z,12.77
2019-04-22T01:50:44.544Z,12.67
2019-04-22T01:52:56.765Z,12.63
2019-04-22T01:53:50.637Z,12.54
2019-04-22T01:55:04.520Z,12.54
2019-04-22T01:55:55.516Z,12.62
2019-04-22T01:56:51.092Z,12.79
2019-04-22T01:57:43.280Z,12.92
2019-04-22T01:58:40.679Z,12.93
2019-04-22T01:59:41.367Z,13.02
2019-04-22T02:00:49.150Z,13.00
2019-04-22T02:01:52.823Z,12.97
2019-04-22T02:02:49.222Z,12.89
2019-04-22T02:03:46.698Z,12.78
2019-04-22T02:05:04.879Z,12.88
2019-04-22T02:05:44.149Z,12.93
2019-04-22T02:06:48.267Z,12.88
2019-04-22T02:07:48.270Z,12.82
2019-04-22T02:08:52.725Z,12.82
2019-04-22T02:09:49.683Z,12.93
2019-04-22T02:10:55.034Z,12.89
2019-04-22T02:12:50.357Z,12.81
2019-04-22T02:13:49.521Z,12.85
2019-04-22T02:14:50.696Z,12.97
2019-04-22T02:15:53.369Z,12.84
2019-04-22T02:16:50.400Z,12.97
2019-04-22T02:17:56.198Z,12.92
2019-04-22T02:18:58.028Z,12.99
2019-04-22T02:19:53.387Z,13.02
2019-04-22T02:20:48.634Z,13.06
2019-04-22T02:21:48.586Z,13.03
2019-04-22T02:23:07.277Z,12.99
2019-04-22T02:25:59.321Z,13.00
2019-04-22T02:26:48.202Z,13.00
2019-04-22T02:27:57.338Z,12.96
2019-04-22T02:29:04.261Z,12.88
2019-04-22T02:29:47.396Z,12.96
2019-04-22T02:31:13.979Z,12.78
2019-04-22T02:31:59.387Z,12.64
2019-04-22T02:33:18.501Z,12.66
2019-04-22T02:34:58.153Z,12.62
2019-04-22T02:36:08.207Z,12.56
2019-04-22T02:36:54.211Z,12.56
2019-04-22T02:38:04.963Z,12.52
2019-04-22T02:39:58.079Z,12.48
2019-04-22T02:41:49.912Z,12.51
2019-04-22T02:43:05.155Z,12.46
2019-04-22T02:44:02.135Z,12.46
2019-04-22T02:46:12.928Z,12.42
2019-04-22T02:49:53.390Z,12.30
2019-04-22T02:52:09.739Z,12.26
2019-04-22T02:52:50.239Z,12.16
2019-04-22T02:55:51.222Z,12.15
2019-04-22T02:56:04.917Z,12.11
2019-04-22T02:56:58.906Z,12.01
2019-04-22T02:57:56.628Z,11.97
2019-04-22T02:59:11.654Z,11.85
2019-04-22T02:59:57.343Z,11.93
2019-04-22T03:01:05.639Z,11.85
2019-04-22T03:04:06.954Z,11.96
2019-04-22T03:04:58.215Z,11.87
2019-04-22T03:06:11.482Z,11.86
2019-04-22T03:06:43.457Z,11.86
2019-04-22T03:07:58.655Z,11.97
2019-04-22T03:09:01.249Z,11.96
2019-04-22T03:09:55.387Z,11.99
2019-04-22T03:12:04.583Z,11.97
2019-04-22T03:12:51.996Z,11.85
2019-04-22T03:16:10.712Z,11.54
2019-04-22T03:16:57.404Z,11.50
2019-04-22T03:20:01.969Z,11.38
2019-04-22T03:21:00.347Z,11.20
2019-04-22T03:21:57.038Z,11.20
2019-04-22T03:23:09.756Z,11.16
2019-04-22T03:24:05.929Z,11.06
2019-04-22T03:25:25.747Z,11.06
2019-04-22T03:26:11.486Z,11.02
2019-04-22T03:27:02.994Z,10.96
2019-04-22T03:28:16.127Z,11.02
2019-04-22T03:30:26.609Z,11.02
2019-04-22T03:34:38.652Z,10.92
2019-04-22T03:39:15.532Z,10.66
2019-04-22T03:40:07.253Z,10.70
2019-04-22T03:45:10.295Z,10.44
2019-04-22T03:45:45.854Z,10.51
2019-04-22T03:47:59.645Z,10.37
2019-04-22T03:49:11.023Z,10.46
2019-04-22T03:50:04.085Z,10.39
2019-04-22T03:51:01.920Z,10.40
2019-04-22T03:53:03.999Z,10.40
2019-04-22T03:54:10.459Z,10.34
2019-04-22T03:55:02.422Z,10.24
2019-04-22T03:56:12.537Z,10.12
2019-04-22T03:59:11.505Z,10.10
2019-04-22T04:00:03.865Z,10.15
2019-04-22T04:02:02.577Z,10.07
2019-04-22T04:03:00.903Z,10.01
2019-04-22T04:04:09.343Z,10.00
2019-04-22T04:05:01.145Z,10.00
2019-04-22T04:06:00.439Z,9.88
2019-04-22T04:07:11.144Z,9.82
2019-04-22T04:09:04.576Z,9.64
2019-04-22T04:10:53.136Z,9.56
2019-04-22T04:13:03.551Z,9.49
2019-04-22T04:14:11.978Z,9.43
2019-04-22T04:15:05.847Z,9.39
2019-04-22T04:15:57.745Z,9.46
2019-04-22T04:17:04.176Z,9.49
2019-04-22T04:19:07.150Z,9.58
2019-04-22T04:20:10.614Z,9.49
2019-04-22T04:21:18.771Z,9.46
2019-04-22T04:22:04.657Z,9.50
2019-04-22T04:23:10.532Z,9.49
2019-04-22T04:24:19.784Z,9.46
2019-04-22T04:26:17.732Z,9.49
2019-04-22T04:27:20.924Z,9.52
2019-04-22T04:28:26.856Z,9.52
2019-04-22T04:29:22.165Z,9.50
2019-04-22T04:31:15.020Z,9.50
2019-04-22T04:33:01.492Z,9.63
2019-04-22T04:34:04.126Z,9.61
2019-04-22T04:35:19.304Z,9.68
2019-04-22T04:36:02.447Z,9.70
2019-04-22T04:37:07.399Z,9.64
2019-04-22T04:37:55.259Z,9.67
2019-04-22T04:39:02.858Z,9.52
2019-04-22T04:40:25.072Z,9.52
2019-04-22T04:41:01.942Z,9.52
2019-04-22T04:46:06.908Z,9.67
2019-04-22T04:47:11.582Z,9.75
2019-04-22T04:48:00.890Z,9.81
2019-04-22T04:50:11.914Z,9.76
2019-04-22T04:54:13.066Z,9.79
2019-04-22T04:55:10.017Z,9.81
2019-04-22T04:56:02.793Z,9.78
2019-04-22T04:56:56.789Z,9.75
2019-04-22T05:01:08.149Z,9.79
2019-04-22T05:02:06.668Z,9.86
2019-04-22T05:02:58.373Z,9.96
2019-04-22T05:04:08.879Z,10.10
2019-04-22T05:05:12.120Z,10.10
2019-04-22T05:06:09.229Z,10.28
2019-04-22T05:08:01.023Z,10.37
2019-04-22T05:10:16.511Z,10.52
2019-04-22T05:12:25.311Z,10.52
2019-04-22T05:13:10.295Z,10.55
2019-04-22T05:14:11.920Z,10.56
2019-04-22T05:15:09.178Z,10.62
2019-04-22T05:16:20.394Z,10.59
2019-04-22T05:17:02.236Z,10.70
2019-04-22T05:19:11.094Z,10.62
2019-04-22T05:20:05.241Z,10.71
2019-04-22T05:21:58.127Z,10.76
2019-04-22T05:23:00.229Z,10.76
2019-04-22T05:24:05.505Z,10.78
2019-04-22T05:24:59.913Z,10.78
2019-04-22T05:25:57.941Z,10.92
2019-04-22T05:27:16.348Z,11.02
2019-04-22T05:28:12.216Z,11.09
2019-04-22T05:29:04.081Z,11.20
2019-04-22T05:30:23.482Z,11.32
2019-04-22T05:31:01.544Z,11.44
2019-04-22T05:31:59.730Z,11.50
2019-04-22T05:32:55.275Z,11.57
2019-04-22T05:33:56.774Z,11.64
2019-04-22T05:34:54.026Z,11.57
2019-04-22T05:36:01.534Z,11.62
2019-04-22T05:37:01.268Z,11.53
2019-04-22T05:38:04.497Z,11.61
2019-04-22T05:39:00.149Z,11.68
2019-04-22T05:40:06.600Z,11.77
2019-04-22T05:41:00.537Z,11.80
2019-04-22T05:41:56.105Z,11.85
2019-04-22T05:42:56.461Z,11.93
2019-04-22T05:44:00.455Z,11.94
2019-04-22T05:45:00.847Z,12.05
2019-04-22T05:45:58.882Z,12.11
2019-04-22T05:46:54.460Z,12.21
2019-04-22T05:47:59.429Z,12.24
2019-04-22T05:48:59.853Z,12.29
2019-04-22T05:49:55.196Z,12.30
2019-04-22T05:50:59.328Z,12.23
2019-04-22T05:51:56.704Z,12.37
2019-04-22T05:52:57.428Z,12.33
2019-04-22T05:54:01.479Z,12.42
2019-04-22T05:55:02.508Z,12.46
2019-04-22T05:56:23.182Z,12.63
2019-04-22T05:56:52.651Z,12.66
2019-04-22T05:57:57.776Z,12.82
2019-04-22T05:58:58.598Z,12.82
2019-04-22T06:00:04.719Z,12.87
2019-04-22T06:01:23.533Z,12.79
2019-04-22T06:03:01.546Z,12.93
2019-04-22T06:04:05.346Z,12.96
2019-04-22T06:05:01.922Z,13.02
2019-04-22T06:05:55.337Z,13.00
2019-04-22T06:06:54.075Z,13.04
2019-04-22T06:08:01.494Z,13.04
2019-04-22T06:09:02.246Z,13.11
2019-04-22T06:10:06.609Z,13.15
2019-04-22T06:11:06.049Z,13.22
2019-04-22T06:11:55.525Z,13.18
2019-04-22T06:12:56.297Z,13.27
2019-04-22T06:13:59.173Z,13.30
2019-04-22T06:14:58.688Z,13.30
2019-04-22T06:15:44.051Z,13.43
2019-04-22T06:16:59.172Z,13.54
2019-04-22T06:18:02.689Z,13.55
2019-04-22T06:19:05.741Z,13.61
2019-04-22T06:19:57.629Z,13.62
2019-04-22T06:21:56.051Z,13.69
2019-04-22T06:24:05.900Z,13.70
2019-04-22T06:25:00.948Z,13.81
2019-04-22T06:28:11.851Z,14.06
2019-04-22T06:29:07.369Z,13.99
2019-04-22T06:29:55.439Z,14.12
2019-04-22T06:31:02.604Z,14.21
2019-04-22T06:32:17.919Z,14.29
2019-04-22T06:33:00.812Z,14.16
2019-04-22T06:34:04.787Z,14.29
2019-04-22T06:35:12.882Z,14.27
2019-04-22T06:36:03.738Z,14.20
2019-04-22T06:38:22.799Z,14.39
2019-04-22T06:39:05.269Z,14.54
2019-04-22T06:39:59.280Z,14.56
2019-04-22T06:41:04.082Z,14.64
2019-04-22T06:42:06.834Z,14.78
2019-04-22T06:43:05.668Z,14.87
2019-04-22T06:44:04.402Z,15.08
2019-04-22T06:45:04.147Z,15.31
2019-04-22T06:46:02.170Z,15.66
2019-04-22T06:46:56.376Z,15.99
2019-04-22T06:49:03.599Z,16.65
2019-04-22T06:50:05.374Z,16.92
2019-04-22T06:51:00.085Z,17.08
2019-04-22T06:52:03.483Z,16.86
2019-04-22T06:52:56.877Z,16.93
2019-04-22T06:54:02.470Z,17.28
2019-04-22T06:54:59.480Z,17.54
2019-04-22T06:55:59.670Z,17.51
2019-04-22T06:56:59.621Z,17.67
2019-04-22T06:57:59.726Z,17.84
2019-04-22T06:58:58.010Z,17.88
2019-04-22T07:00:05.639Z,17.63
2019-04-22T07:01:04.149Z,17.22
2019-04-22T07:02:02.187Z,17.08
2019-04-22T07:04:01.522Z,17.13
2019-04-22T07:05:01.021Z,17.33
2019-04-22T07:06:11.177Z,17.69
2019-04-22T07:07:03.292Z,17.85
2019-04-22T07:08:04.366Z,17.53
2019-04-22T07:10:11.511Z,17.99
2019-04-22T07:10:58.388Z,17.94
2019-04-22T07:12:02.215Z,17.81
2019-04-22T07:13:01.503Z,17.70
2019-04-22T07:14:07.106Z,17.70
2019-04-22T07:15:03.327Z,17.95
2019-04-22T07:15:59.474Z,17.53
2019-04-22T07:17:01.887Z,17.48
2019-04-22T07:18:07.579Z,17.48
2019-04-22T07:19:02.555Z,17.62
2019-04-22T07:19:55.820Z,17.70
2019-04-22T07:21:01.451Z,17.50
2019-04-22T07:22:08.850Z,17.18
2019-04-22T07:23:06.770Z,17.29
2019-04-22T07:24:20.062Z,17.48
2019-04-22T07:27:08.205Z,18.02
2019-04-22T07:27:58.248Z,18.21
2019-04-22T07:29:01.710Z,18.64
2019-04-22T07:30:09.548Z,18.64
2019-04-22T07:31:08.732Z,18.67
2019-04-22T07:32:04.716Z,18.07
2019-04-22T07:34:17.830Z,17.18
2019-04-22T07:35:08.459Z,17.22
2019-04-22T07:36:28.447Z,17.23
2019-04-22T07:37:09.261Z,16.77
2019-04-22T07:38:04.616Z,16.90
2019-04-22T07:39:08.608Z,16.60
2019-04-22T07:40:01.874Z,16.81
2019-04-22T07:41:03.568Z,16.86
2019-04-22T07:42:10.652Z,17.22
2019-04-22T07:43:09.829Z,17.25
2019-04-22T07:44:13.573Z,17.87
2019-04-22T07:45:05.282Z,18.52
2019-04-22T07:46:00.302Z,18.82
2019-04-22T07:48:15.224Z,18.62
2019-04-22T07:49:06.556Z,18.37
2019-04-22T07:50:09.598Z,17.73
2019-04-22T07:52:05.150Z,18.28
2019-04-22T07:53:08.476Z,18.94
2019-04-22T07:54:04.613Z,18.77
2019-04-22T07:55:13.320Z,17.70
2019-04-22T07:56:05.469Z,18.03
2019-04-22T07:57:08.958Z,17.28
2019-04-22T07:58:06.618Z,16.70
2019-04-22T07:59:03.471Z,16.52
2019-04-22T08:00:10.942Z,16.35
2019-04-22T08:01:12.097Z,16.41
2019-04-22T08:02:07.544Z,16.30
2019-04-22T08:03:09.841Z,15.76
2019-04-22T08:04:30.242Z,16.40
2019-04-22T08:05:18.804Z,16.58
2019-04-22T08:07:11.400Z,16.62
2019-04-22T08:08:10.958Z,16.18
2019-04-22T08:09:07.138Z,16.18
2019-04-22T08:10:17.027Z,16.70
2019-04-22T08:11:10.324Z,17.23
2019-04-22T08:11:56.368Z,17.10
2019-04-22T08:13:05.175Z,16.81
2019-04-22T08:14:07.500Z,16.81
2019-04-22T08:15:07.593Z,16.55
2019-04-22T08:16:02.648Z,16.70
2019-04-22T08:17:14.063Z,17.14
2019-04-22T08:18:06.931Z,17.64
2019-04-22T08:19:10.555Z,18.18
2019-04-22T08:20:08.912Z,17.88
2019-04-22T08:21:06.271Z,18.15
2019-04-22T08:22:05.973Z,18.67
2019-04-22T08:23:09.044Z,18.70
2019-04-22T08:24:07.809Z,18.84
2019-04-22T08:25:08.162Z,18.74
2019-04-22T08:26:03.402Z,18.10
2019-04-22T08:27:08.690Z,17.64
2019-04-22T08:28:07.818Z,17.33
2019-04-22T08:29:08.119Z,17.32
2019-04-22T08:30:14.144Z,17.59
2019-04-22T08:31:10.571Z,17.67
2019-04-22T08:32:11.158Z,17.41
2019-04-22T08:33:13.829Z,17.14
2019-04-22T08:34:06.386Z,17.03
2019-04-22T08:35:05.159Z,17.03
2019-04-22T08:36:10.778Z,16.68
2019-04-22T08:37:35.452Z,16.07
2019-04-22T08:38:11.502Z,15.60
2019-04-22T08:39:08.241Z,15.48
2019-04-22T08:40:17.024Z,15.57
2019-04-22T08:41:08.642Z,15.99
2019-04-22T08:42:16.263Z,16.03
2019-04-22T08:43:13.999Z,16.14
2019-04-22T08:44:07.958Z,15.88
2019-04-22T08:46:11.321Z,15.70
2019-04-22T08:47:11.223Z,15.67
2019-04-22T08:48:01.620Z,16.00
2019-04-22T08:49:05.702Z,16.01
2019-04-22T08:50:09.042Z,16.30
2019-04-22T08:51:08.777Z,16.56
2019-04-22T08:52:08.601Z,16.30
2019-04-22T08:53:08.118Z,16.23
2019-04-22T08:54:11.796Z,15.74
2019-04-22T08:55:15.861Z,15.49
2019-04-22T08:56:14.495Z,15.57
2019-04-22T08:57:25.902Z,15.33
2019-04-22T08:59:09.460Z,15.93
2019-04-22T09:00:08.383Z,16.18
2019-04-22T09:01:11.619Z,16.03
2019-04-22T09:02:17.463Z,16.22
2019-04-22T09:03:12.375Z,16.58
2019-04-22T09:04:24.674Z,16.77
2019-04-22T09:05:20.616Z,16.89
2019-04-22T09:06:11.323Z,17.13
2019-04-22T09:09:06.531Z,18.00
2019-04-22T09:10:15.639Z,18.09
2019-04-22T09:11:18.166Z,17.71
2019-04-22T09:12:08.203Z,18.18
2019-04-22T09:13:20.604Z,18.55
2019-04-22T09:14:11.326Z,18.57
2019-04-22T09:15:03.931Z,17.95
2019-04-22T09:16:12.391Z,17.71
2019-04-22T09:17:13.709Z,17.67
2019-04-22T09:18:11.118Z,17.23
2019-04-22T09:19:08.242Z,17.07
2019-04-22T09:20:10.438Z,17.15
2019-04-22T09:21:15.519Z,17.18
2019-04-22T09:22:13.688Z,17.40
2019-04-22T09:23:11.190Z,17.35
2019-04-22T09:24:14.169Z,17.71
2019-04-22T09:25:11.732Z,18.02
2019-04-22T09:26:10.700Z,18.34
2019-04-22T09:27:12.953Z,18.57
2019-04-22T09:28:10.341Z,18.80
2019-04-22T09:29:14.250Z,19.05
2019-04-22T09:30:17.021Z,19.55
2019-04-22T09:31:23.973Z,19.95
2019-04-22T09:32:14.748Z,20.61
2019-04-22T09:33:14.065Z,20.86
2019-04-22T09:34:06.910Z,21.16
2019-04-22T09:35:30.634Z,21.59
2019-04-22T09:36:16.513Z,21.88
2019-04-22T09:37:23.663Z,21.98
2019-04-22T09:38:26.369Z,21.26
2019-04-22T09:39:10.572Z,19.86
2019-04-22T09:40:15.860Z,19.53
2019-04-22T09:41:16.892Z,19.20
2019-04-22T09:42:13.422Z,18.83
2019-04-22T09:43:10.096Z,18.36
2019-04-22T09:44:21.818Z,18.57
2019-04-22T09:46:06.546Z,19.42
2019-04-22T09:47:12.821Z,19.36
2019-04-22T09:49:12.056Z,19.97
2019-04-22T09:50:08.001Z,20.25
2019-04-22T09:51:09.829Z,20.51
2019-04-22T09:52:10.270Z,20.50
2019-04-22T09:53:08.490Z,20.18
2019-04-22T09:54:14.684Z,19.75
2019-04-22T09:55:12.499Z,19.79
2019-04-22T09:56:12.229Z,19.88
2019-04-22T09:57:09.225Z,19.88
2019-04-22T09:58:09.719Z,19.47
2019-04-22T09:59:07.703Z,19.28
2019-04-22T10:00:09.803Z,19.33
2019-04-22T10:01:18.732Z,19.73
2019-04-22T10:03:16.639Z,20.83
2019-04-22T10:04:06.899Z,20.90
2019-04-22T10:05:11.458Z,21.11
2019-04-22T10:06:16.534Z,21.36
2019-04-22T10:07:15.303Z,21.35
2019-04-22T10:08:16.848Z,21.79
2019-04-22T10:10:38.071Z,22.52
2019-04-22T10:11:14.317Z,22.65
2019-04-22T10:12:11.925Z,22.78
2019-04-22T10:13:12.292Z,21.92
2019-04-22T10:14:14.157Z,20.05
2019-04-22T10:15:05.813Z,19.65
2019-04-22T10:16:17.575Z,19.91
2019-04-22T10:17:07.841Z,20.23
2019-04-22T10:18:12.772Z,20.51
2019-04-22T10:19:14.529Z,20.91
2019-04-22T10:20:10.209Z,21.46
2019-04-22T10:21:16.562Z,21.88
2019-04-22T10:22:10.955Z,22.32
2019-04-22T10:23:15.348Z,22.41
2019-04-22T10:24:09.103Z,22.31
2019-04-22T10:25:11.909Z,21.99
2019-04-22T10:26:16.259Z,22.14
2019-04-22T10:27:07.961Z,22.59
2019-04-22T10:28:15.080Z,22.64
2019-04-22T10:29:13.700Z,23.09
2019-04-22T10:30:15.153Z,23.49
2019-04-22T10:31:21.982Z,23.94
2019-04-22T10:32:12.619Z,24.22
2019-04-22T10:33:05.698Z,24.08
2019-04-22T10:33:59.950Z,23.85
2019-04-22T10:34:55.549Z,23.77
2019-04-22T10:35:47.676Z,23.79
2019-04-22T10:36:52.699Z,24.04
2019-04-22T10:37:48.012Z,24.26
2019-04-22T10:38:48.562Z,24.45
2019-04-22T10:39:54.089Z,24.75
2019-04-22T10:40:46.914Z,25.09
2019-04-22T10:41:48.484Z,25.10
2019-04-22T10:42:47.329Z,25.10
2019-04-22T10:43:47.595Z,25.54
2019-04-22T10:44:48.529Z,25.98
2019-04-22T10:45:48.096Z,26.28
2019-04-22T10:46:48.299Z,26.57
2019-04-22T10:47:48.005Z,26.87
2019-04-22T10:48:48.310Z,26.92
2019-04-22T10:49:48.641Z,27.19
2019-04-22T10:50:48.803Z,27.16
2019-04-22T10:51:48.705Z,27.31
2019-04-22T10:52:47.762Z,27.28
2019-04-22T10:53:47.628Z,27.29
2019-04-22T10:54:47.684Z,27.41
2019-04-22T10:55:49.325Z,27.35
2019-04-22T10:56:48.764Z,27.54
2019-04-22T10:57:48.617Z,27.71
2019-04-22T10:58:48.961Z,27.92
2019-04-22T10:59:47.973Z,27.98
2019-04-22T11:00:49.880Z,27.95
2019-04-22T11:01:48.729Z,27.98
2019-04-22T11:02:48.181Z,27.96
2019-04-22T11:03:49.076Z,27.66
2019-04-22T11:04:48.266Z,27.48
2019-04-22T11:05:48.435Z,26.76
2019-04-22T11:06:56.016Z,26.43
2019-04-22T11:07:53.869Z,26.09
2019-04-22T11:08:52.865Z,25.99
2019-04-22T11:09:57.146Z,26.15
2019-04-22T11:11:04.821Z,25.94
2019-04-22T11:11:56.583Z,25.74
2019-04-22T11:12:49.285Z,25.93
2019-04-22T11:13:49.631Z,26.28
2019-04-22T11:14:49.736Z,26.62
2019-04-22T11:15:48.905Z,26.96
2019-04-22T11:16:49.758Z,27.09
2019-04-22T11:17:49.571Z,26.95
2019-04-22T11:18:49.581Z,26.44
2019-04-22T11:19:49.916Z,26.06
2019-04-22T11:20:49.547Z,26.24
2019-04-22T11:21:59.944Z,26.09
2019-04-22T11:22:50.907Z,25.94
2019-04-22T11:23:50.389Z,26.37
2019-04-22T11:24:50.688Z,26.08
2019-04-22T11:25:50.042Z,26.08
2019-04-22T11:26:49.509Z,26.59
2019-04-22T11:27:49.694Z,26.59
2019-04-22T11:28:49.730Z,25.87
2019-04-22T11:29:49.793Z,25.83
2019-04-22T11:30:50.189Z,25.97
2019-04-22T11:31:50.524Z,26.17
2019-04-22T11:32:50.694Z,26.36
2019-04-22T11:33:50.291Z,26.55
2019-04-22T11:34:51.120Z,26.73
2019-04-22T11:35:50.216Z,26.92
2019-04-22T11:36:50.572Z,26.80
2019-04-22T11:37:50.717Z,27.01
2019-04-22T11:38:56.467Z,26.61
2019-04-22T11:40:04.866Z,26.35
2019-04-22T11:40:54.057Z,26.28
2019-04-22T11:41:51.794Z,26.06
2019-04-22T11:42:50.437Z,25.91
2019-04-22T11:43:51.330Z,25.80
2019-04-22T11:44:50.977Z,25.72
2019-04-22T11:45:51.215Z,25.83
2019-04-22T11:46:51.695Z,25.93
2019-04-22T11:47:51.090Z,26.11
2019-04-22T11:48:51.918Z,25.98
2019-04-22T11:49:51.961Z,26.12
2019-04-22T11:50:51.643Z,25.98
2019-04-22T11:51:51.794Z,26.25
2019-04-22T11:52:51.048Z,26.58
2019-04-22T11:53:52.406Z,27.02
2019-04-22T11:54:51.105Z,27.23
2019-04-22T11:55:51.163Z,27.23
2019-04-22T11:56:52.636Z,27.33
2019-04-22T11:57:51.929Z,27.41
2019-04-22T11:58:52.822Z,27.20
2019-04-22T11:59:51.447Z,27.29
2019-04-22T12:00:51.991Z,27.41
2019-04-22T12:01:52.814Z,27.82
2019-04-22T12:02:51.569Z,27.86
2019-04-22T12:03:51.855Z,27.84
2019-04-22T12:04:51.977Z,27.53
2019-04-22T12:05:52.230Z,27.36
2019-04-22T12:06:51.816Z,27.66
2019-04-22T12:07:53.107Z,27.62
2019-04-22T12:08:51.987Z,27.79
2019-04-22T12:09:53.297Z,27.89
2019-04-22T12:10:55.390Z,28.03
2019-04-22T12:11:53.783Z,28.10
2019-04-22T12:12:53.537Z,27.99
2019-04-22T12:13:53.803Z,28.13
2019-04-22T12:14:52.337Z,27.92
2019-04-22T12:15:53.391Z,27.77
2019-04-22T12:16:53.137Z,27.58
2019-04-22T12:17:53.095Z,27.71
2019-04-22T12:18:53.473Z,27.92
2019-04-22T12:19:52.683Z,28.22
2019-04-22T12:20:53.147Z,28.26
2019-04-22T12:21:53.165Z,28.10
2019-04-22T12:22:53.373Z,28.29
2019-04-22T12:23:52.951Z,28.32
2019-04-22T12:24:53.072Z,28.23
2019-04-22T12:26:01.274Z,28.33
2019-04-22T12:26:52.966Z,28.33
2019-04-22T12:27:53.071Z,28.31
2019-04-22T12:28:53.284Z,28.22
2019-04-22T12:29:53.230Z,28.09
2019-04-22T12:30:53.528Z,28.10
2019-04-22T12:31:53.590Z,28.10
2019-04-22T12:32:54.548Z,27.88
2019-04-22T12:33:53.402Z,27.85
2019-04-22T12:34:53.499Z,27.98
2019-04-22T12:35:54.672Z,28.11
2019-04-22T12:36:54.460Z,28.26
2019-04-22T12:37:58.902Z,28.48
2019-04-22T12:38:53.779Z,28.70
2019-04-22T12:39:56.424Z,28.75
2019-04-22T12:40:59.097Z,28.87
2019-04-22T12:41:54.081Z,28.87
2019-04-22T12:42:55.323Z,28.97
2019-04-22T12:43:55.412Z,29.19
2019-04-22T12:44:54.150Z,28.28
2019-04-22T12:45:54.369Z,27.66
2019-04-22T12:46:54.473Z,26.99
2019-04-22T12:47:54.226Z,26.74
2019-04-22T12:48:54.276Z,26.84
2019-04-22T12:50:06.336Z,26.91
2019-04-22T12:50:56.436Z,26.50
2019-04-22T12:51:54.808Z,26.17
2019-04-22T12:52:59.406Z,26.47
2019-04-22T12:53:55.130Z,26.95
2019-04-22T12:54:55.166Z,27.19
2019-04-22T12:55:55.471Z,27.67
2019-04-22T12:56:55.709Z,27.80
2019-04-22T12:57:58.585Z,27.98
2019-04-22T12:58:55.859Z,27.70
2019-04-22T12:59:55.417Z,27.38
2019-04-22T13:00:55.011Z,27.36
2019-04-22T13:01:55.272Z,27.35
2019-04-22T13:02:55.111Z,27.41
2019-04-22T13:04:00.278Z,27.92
2019-04-22T13:04:56.265Z,28.43
2019-04-22T13:05:56.168Z,28.46
2019-04-22T13:06:55.580Z,28.58
2019-04-22T13:07:55.819Z,28.28
2019-04-22T13:08:56.572Z,28.46
2019-04-22T13:09:57.014Z,28.23
2019-04-22T13:11:03.179Z,27.80
2019-04-22T13:11:57.076Z,26.94
2019-04-22T13:12:57.021Z,26.73
2019-04-22T13:13:56.753Z,26.09
2019-04-22T13:14:57.204Z,26.25
2019-04-22T13:15:57.097Z,26.67
2019-04-22T13:16:55.997Z,26.96
2019-04-22T13:18:05.985Z,27.26
2019-04-22T13:19:01.159Z,27.51
2019-04-22T13:19:56.199Z,27.13
2019-04-22T13:20:56.780Z,26.62
2019-04-22T13:21:56.623Z,26.09
2019-04-22T13:22:57.007Z,25.97
2019-04-22T13:23:57.090Z,25.86
2019-04-22T13:24:57.528Z,25.57
2019-04-22T13:25:56.781Z,25.43
2019-04-22T13:26:57.100Z,25.43
2019-04-22T13:27:57.566Z,25.22
2019-04-22T13:28:56.974Z,24.82
2019-04-22T13:29:57.143Z,24.92
2019-04-22T13:30:59.715Z,24.91
2019-04-22T13:31:58.163Z,24.57
2019-04-22T13:32:56.904Z,24.49
2019-04-22T13:33:59.668Z,24.52
2019-04-22T13:34:59.961Z,24.60
2019-04-22T13:35:57.503Z,24.49
2019-04-22T13:36:57.151Z,24.61
2019-04-22T13:37:57.399Z,24.60
2019-04-22T13:38:58.610Z,24.76
2019-04-22T13:39:57.305Z,24.64
2019-04-22T13:41:09.754Z,24.79
2019-04-22T13:42:02.070Z,24.82
2019-04-22T13:42:58.697Z,24.79
2019-04-22T13:43:58.089Z,24.88
2019-04-22T13:44:58.106Z,24.90
2019-04-22T13:45:58.430Z,24.79
2019-04-22T13:47:14.616Z,24.79
2019-04-22T13:48:16.710Z,25.02
2019-04-22T13:49:25.185Z,24.88
2019-04-22T13:53:40.404Z,24.71
2019-04-22T13:55:27.401Z,24.61
2019-04-22T13:56:19.359Z,24.49
2019-04-22T13:57:19.973Z,24.32
2019-04-22T13:58:12.353Z,24.41
2019-04-22T13:59:08.984Z,24.61
2019-04-22T14:00:00.690Z,24.53
2019-04-22T14:00:58.664Z,24.68
2019-04-22T14:01:58.805Z,24.95
2019-04-22T14:02:58.595Z,25.07
2019-04-22T14:03:58.835Z,25.06
2019-04-22T14:04:59.155Z,24.92
2019-04-22T14:05:58.741Z,24.69
2019-04-22T14:06:58.887Z,24.56
2019-04-22T14:08:00.800Z,24.53
2019-04-22T14:08:59.149Z,24.52
2019-04-22T14:10:00.167Z,24.77
2019-04-22T14:11:13.163Z,24.90
2019-04-22T14:12:05.208Z,24.90
2019-04-22T14:13:00.642Z,24.98
2019-04-22T14:14:00.747Z,25.06
2019-04-22T14:15:00.214Z,25.13
2019-04-22T14:15:59.429Z,25.25
2019-04-22T14:17:00.682Z,25.37
2019-04-22T14:17:59.377Z,25.37
2019-04-22T14:19:00.216Z,25.24
2019-04-22T14:20:00.458Z,25.15
2019-04-22T14:21:00.810Z,25.20
2019-04-22T14:21:59.801Z,25.31
2019-04-22T14:22:59.650Z,25.37
2019-04-22T14:24:00.401Z,25.19
2019-04-22T14:25:00.724Z,25.25
2019-04-22T14:26:01.197Z,25.35
2019-04-22T14:27:19.240Z,25.37
2019-04-22T14:28:04.423Z,25.47
2019-04-22T14:29:00.165Z,25.25
2019-04-22T14:30:00.033Z,25.22